Map

Track Data

SID SEASON NUMBER BASIN SUBBASIN NAME ISO_TIME NATURE LAT LON WMO_WIND WMO_PRES WMO_AGENCY TRACK_TYPE DIST2LAND LANDFALL IFLAG USA_AGENCY USA_ATCF_ID USA_LAT USA_LON USA_RECORD USA_STATUS USA_WIND USA_PRES USA_SSHS USA_R34_NE USA_R34_SE USA_R34_SW USA_R34_NW USA_R50_NE USA_R50_SE USA_R50_SW USA_R50_NW USA_R64_NE USA_R64_SE USA_R64_SW USA_R64_NW USA_POCI USA_ROCI USA_RMW USA_EYE TOKYO_LAT TOKYO_LON TOKYO_GRADE TOKYO_WIND TOKYO_PRES TOKYO_R50_DIR TOKYO_R50_LONG TOKYO_R50_SHORT TOKYO_R30_DIR TOKYO_R30_LONG TOKYO_R30_SHORT TOKYO_LAND CMA_LAT CMA_LON CMA_CAT CMA_WIND CMA_PRES HKO_LAT HKO_LON HKO_CAT HKO_WIND HKO_PRES NEWDELHI_LAT NEWDELHI_LON NEWDELHI_GRADE NEWDELHI_WIND NEWDELHI_PRES NEWDELHI_CI NEWDELHI_DP NEWDELHI_POCI REUNION_LAT REUNION_LON REUNION_TYPE REUNION_WIND REUNION_PRES REUNION_TNUM REUNION_CI REUNION_RMW REUNION_R34_NE REUNION_R34_SE REUNION_R34_SW REUNION_R34_NW REUNION_R50_NE REUNION_R50_SE REUNION_R50_SW REUNION_R50_NW REUNION_R64_NE REUNION_R64_SE REUNION_R64_SW REUNION_R64_NW BOM_LAT BOM_LON BOM_TYPE BOM_WIND BOM_PRES BOM_TNUM BOM_CI BOM_RMW BOM_R34_NE BOM_R34_SE BOM_R34_SW BOM_R34_NW BOM_R50_NE BOM_R50_SE BOM_R50_SW BOM_R50_NW BOM_R64_NE BOM_R64_SE BOM_R64_SW BOM_R64_NW BOM_ROCI BOM_POCI BOM_EYE BOM_POS_METHOD BOM_PRES_METHOD NADI_LAT NADI_LON NADI_CAT NADI_WIND NADI_PRES WELLINGTON_LAT WELLINGTON_LON WELLINGTON_WIND WELLINGTON_PRES DS824_LAT DS824_LON DS824_STAGE DS824_WIND DS824_PRES TD9636_LAT TD9636_LON TD9636_STAGE TD9636_WIND TD9636_PRES TD9635_LAT TD9635_LON TD9635_WIND TD9635_PRES TD9635_ROCI NEUMANN_LAT NEUMANN_LON NEUMANN_CLASS NEUMANN_WIND NEUMANN_PRES MLC_LAT MLC_LON MLC_CLASS MLC_WIND MLC_PRES USA_GUST BOM_GUST BOM_GUST_PER REUNION_GUST REUNION_GUST_PER USA_SEAHGT USA_SEARAD_NE USA_SEARAD_SE USA_SEARAD_SW USA_SEARAD_NW STORM_SPEED STORM_DIR
1935229N09145 1935 44 WP MM NOT_NAMED 1935-08-16 21:00:00 NR 9.40000 145.100 main 1299 1299 __________O___ -1 9.40000 145.100 2 5 322
1935229N09145 1935 44 WP MM NOT_NAMED 1935-08-17 00:00:00 NR 9.57816 144.956 main 1322 1322 __________P___ -1 9.57816 144.956 2 5 322
1935229N09145 1935 44 WP MM NOT_NAMED 1935-08-17 03:00:00 NR 9.77505 144.800 main 1348 1348 __________P___ -1 9.77505 144.800 2 5 322
1935229N09145 1935 44 WP MM NOT_NAMED 1935-08-17 06:00:00 NR 10.0094 144.619 main 1373 1373 __________P___ -1 10.0094 144.619 2 7 323
1935229N09145 1935 44 WP MM NOT_NAMED 1935-08-17 09:00:00 NR 10.3000 144.400 main 1410 1410 __________O___ -1 10.3000 144.400 2 8 324
1935229N09145 1935 44 WP MM NOT_NAMED 1935-08-17 12:00:00 NR 10.6608 144.132 main 1460 1460 __________P___ -1 10.6608 144.132 2 10 324
1935229N09145 1935 44 WP MM NOT_NAMED 1935-08-17 15:00:00 NR 11.0873 143.811 main 1511 1511 __________P___ -1 11.0873 143.811 2 11 323
1935229N09145 1935 44 WP MM NOT_NAMED 1935-08-17 18:00:00 NR 11.5701 143.435 main 1575 1575 __________P___ -1 11.5701 143.435 2 13 322
1935229N09145 1935 44 WP MM NOT_NAMED 1935-08-17 21:00:00 NR 12.1000 143.000 main 1624 1624 __________O___ -1 12.1000 143.000 2 15 321
1935229N09145 1935 44 WP MM NOT_NAMED 1935-08-18 00:00:00 NR 12.6976 142.512 main 1671 1671 __________P___ -1 12.6976 142.512 2 16 321
1935229N09145 1935 44 WP MM NOT_NAMED 1935-08-18 03:00:00 NR 13.3301 141.969 main 1717 1717 __________P___ -1 13.3301 141.969 2 17 319
1935229N09145 1935 44 WP MM NOT_NAMED 1935-08-18 06:00:00 NR 13.9475 141.390 main 1725 1673 __________P___ -1 13.9475 141.390 2 16 316
1935229N09145 1935 44 WP MM NOT_NAMED 1935-08-18 09:00:00 NR 14.5000 140.800 main 1673 1618 __________O___ -1 14.5000 140.800 2 15 311
1935229N09145 1935 44 WP MM NOT_NAMED 1935-08-18 12:00:00 NR 14.9461 140.211 main 1618 1572 __________P___ -1 14.9461 140.211 2 14 306
1935229N09145 1935 44 WP MM NOT_NAMED 1935-08-18 15:00:00 NR 15.3199 139.619 main 1562 1516 __________P___ -1 15.3199 139.619 2 13 301
1935229N09145 1935 44 WP MM NOT_NAMED 1935-08-18 18:00:00 NR 15.6337 139.043 main 1506 1462 __________P___ -1 15.6337 139.043 2 12 298
1935229N09145 1935 44 WP MM NOT_NAMED 1935-08-18 21:00:00 NR 15.9000 138.500 main 1462 1420 __________O___ -1 15.9000 138.500 2 11 299
1935229N09145 1935 44 WP MM NOT_NAMED 1935-08-19 00:00:00 NR 16.1870 138.018 main 1420 1386 __________P___ -1 16.1870 138.018 2 10 301
1935229N09145 1935 44 WP MM NOT_NAMED 1935-08-19 03:00:00 NR 16.4265 137.570 main 1386 1353 __________P___ -1 16.4265 137.570 2 9 296
1935229N09145 1935 44 WP MM NOT_NAMED 1935-08-19 06:00:00 NR 16.6027 137.137 main 1343 1307 __________P___ -1 16.6027 137.137 2 9 288
1935229N09145 1935 44 WP MM NOT_NAMED 1935-08-19 09:00:00 NR 16.7000 136.700 main 1307 1257 __________O___ -1 16.7000 136.700 2 9 276
1935229N09145 1935 44 WP MM NOT_NAMED 1935-08-19 12:00:00 NR 16.6918 136.223 main 1257 1213 __________P___ -1 16.6918 136.223 2 9 264
1935229N09145 1935 44 WP MM NOT_NAMED 1935-08-19 15:00:00 NR 16.6099 135.741 main 1204 1160 __________P___ -1 16.6099 135.741 2 9 258
1935229N09145 1935 44 WP MM NOT_NAMED 1935-08-19 18:00:00 NR 16.4980 135.264 main 1160 1107 __________P___ -1 16.4980 135.264 2 9 257
1935229N09145 1935 44 WP MM NOT_NAMED 1935-08-19 21:00:00 NR 16.4000 134.800 main 1107 1068 __________O___ -1 16.4000 134.800 2 8 262
1935229N09145 1935 44 WP MM NOT_NAMED 1935-08-20 00:00:00 NR 16.3852 134.418 main 1068 1039 __________P___ -1 16.3852 134.418 2 7 269
1935229N09145 1935 44 WP MM NOT_NAMED 1935-08-20 03:00:00 NR 16.3903 134.040 main 1029 991 __________P___ -1 16.3903 134.040 2 8 271
1935229N09145 1935 44 WP MM NOT_NAMED 1935-08-20 06:00:00 NR 16.4004 133.618 main 991 944 __________P___ -1 16.4004 133.618 2 9 271
1935229N09145 1935 44 WP MM NOT_NAMED 1935-08-20 09:00:00 NR 16.4000 133.100 main 944 874 __________O___ -1 16.4000 133.100 2 12 267
1935229N09145 1935 44 WP MM NOT_NAMED 1935-08-20 12:00:00 NR 16.3461 132.364 main 874 801 __________P___ -1 16.3461 132.364 2 15 265
1935229N09145 1935 44 WP MM NOT_NAMED 1935-08-20 15:00:00 NR 16.2804 131.542 main 793 726 __________P___ -1 16.2804 131.542 2 16 266
1935229N09145 1935 44 WP MM NOT_NAMED 1935-08-20 18:00:00 NR 16.2242 130.723 main 717 654 __________P___ -1 16.2242 130.723 2 15 267
1935229N09145 1935 44 WP MM NOT_NAMED 1935-08-20 21:00:00 NR 16.2000 130.000 main 654 605 __________O___ -1 16.2000 130.000 2 12 269
1935229N09145 1935 44 WP MM NOT_NAMED 1935-08-21 00:00:00 NR 16.2128 129.508 main 605 571 __________P___ -1 16.2128 129.508 2 9 274
1935229N09145 1935 44 WP MM NOT_NAMED 1935-08-21 03:00:00 NR 16.2652 129.117 main 571 543 __________P___ -1 16.2652 129.117 2 7 282
1935229N09145 1935 44 WP MM NOT_NAMED 1935-08-21 06:00:00 NR 16.3600 128.768 main 549 518 __________P___ -1 16.3600 128.768 2 7 289
1935229N09145 1935 44 WP MM NOT_NAMED 1935-08-21 09:00:00 NR 16.5000 128.400 main 518 490 __________O___ -1 16.5000 128.400 2 9 290
1935229N09145 1935 44 WP MM NOT_NAMED 1935-08-21 12:00:00 NR 16.6494 127.924 main 482 464 __________P___ -1 16.6494 127.924 2 10 290
1935229N09145 1935 44 WP MM NOT_NAMED 1935-08-21 15:00:00 NR 16.8451 127.422 main 456 443 __________P___ -1 16.8451 127.422 2 11 295
1935229N09145 1935 44 WP MM NOT_NAMED 1935-08-21 18:00:00 NR 17.0931 126.908 main 444 416 __________P___ -1 17.0931 126.908 2 11 300
1935229N09145 1935 44 WP MM NOT_NAMED 1935-08-21 21:00:00 NR 17.4000 126.400 main 416 379 __________O___ -1 17.4000 126.400 2 12 305
1935229N09145 1935 44 WP MM NOT_NAMED 1935-08-22 00:00:00 NR 17.7588 125.926 main 371 338 __________P___ -1 17.7588 125.926 2 12 311
1935229N09145 1935 44 WP MM NOT_NAMED 1935-08-22 03:00:00 NR 18.1743 125.457 main 338 285 __________P___ -1 18.1743 125.457 2 13 314
1935229N09145 1935 44 WP MM NOT_NAMED 1935-08-22 06:00:00 NR 18.6276 124.985 main 285 244 __________P___ -1 18.6276 124.985 2 13 316
1935229N09145 1935 44 WP MM NOT_NAMED 1935-08-22 09:00:00 NR 19.1000 124.500 main 244 217 __________O___ -1 19.1000 124.500 2 14 315
1935229N09145 1935 44 WP MM NOT_NAMED 1935-08-22 12:00:00 NR 19.5975 123.958 main 223 214 __________P___ -1 19.5975 123.958 2 14 314
1935229N09145 1935 44 WP MM NOT_NAMED 1935-08-22 15:00:00 NR 20.1030 123.407 main 222 222 __________P___ -1 20.1030 123.407 2 14 314
1935229N09145 1935 44 WP MM NOT_NAMED 1935-08-22 18:00:00 NR 20.5820 122.877 main 253 184 __________P___ -1 20.5820 122.877 2 13 314
1935229N09145 1935 44 WP MM NOT_NAMED 1935-08-22 21:00:00 NR 21.0000 122.400 main 184 132 __________O___ -1 21.0000 122.400 2 11 312
1935229N09145 1935 44 WP MM NOT_NAMED 1935-08-23 00:00:00 NR 21.3179 122.012 main 132 89 __________P___ -1 21.3179 122.012 2 9 311
1935229N09145 1935 44 WP MM NOT_NAMED 1935-08-23 03:00:00 NR 21.5739 121.681 main 89 52 __________P___ -1 21.5739 121.681 2 8 309
1935229N09145 1935 44 WP MM NOT_NAMED 1935-08-23 06:00:00 NR 21.7930 121.384 main 52 20 __________P___ -1 21.7930 121.384 2 7 308
1935229N09145 1935 44 WP MM NOT_NAMED 1935-08-23 09:00:00 NR 22.0000 121.100 main 20 0 __________O___ -1 22.0000 121.100 2 7 309
1935229N09145 1935 44 WP MM NOT_NAMED 1935-08-23 12:00:00 NR 22.2401 120.793 main 0 0 __________P___ -1 22.2401 120.793 2 7 310
1935229N09145 1935 44 WP MM NOT_NAMED 1935-08-23 15:00:00 NR 22.4722 120.492 main 0 0 __________P___ -1 22.4722 120.492 2 7 309
1935229N09145 1935 44 WP MM NOT_NAMED 1935-08-23 18:00:00 NR 22.6932 120.196 main 10 10 __________P___ -1 22.6932 120.196 2 7 308
1935229N09145 1935 44 WP MM NOT_NAMED 1935-08-23 21:00:00 NR 22.9000 119.900 main 30 30 __________O___ -1 22.9000 119.900 2 7 310
1935229N09145 1935 44 WP MM NOT_NAMED 1935-08-24 00:00:00 NR 23.1458 119.617 main 51 51 __________P___ -1 23.1458 119.617 2 7 312
1935229N09145 1935 44 WP MM NOT_NAMED 1935-08-24 03:00:00 NR 23.3694 119.331 main 84 84 __________P___ -1 23.3694 119.331 2 7 306
1935229N09145 1935 44 WP MM NOT_NAMED 1935-08-24 06:00:00 NR 23.5332 119.030 main 112 92 __________P___ -1 23.5332 119.030 2 6 292
1935229N09145 1935 44 WP MM NOT_NAMED 1935-08-24 09:00:00 NR 23.6000 118.700 main 92 67 __________O___ -1 23.6000 118.700 2 7 267
1935229N09145 1935 44 WP MM NOT_NAMED 1935-08-24 12:00:00 NR 23.4901 118.237 main 60 45 __________P___ -1 23.4901 118.237 2 9 250
1935229N09145 1935 44 WP MM NOT_NAMED 1935-08-24 15:00:00 NR 23.2888 117.762 main 49 45 __________P___ -1 23.2888 117.762 2 9 242
1935229N09145 1935 44 WP MM NOT_NAMED 1935-08-24 18:00:00 NR 23.0680 117.356 main 54 49 __________P___ -1 23.0680 117.356 2 7 237
1935229N09145 1935 44 WP MM NOT_NAMED 1935-08-24 21:00:00 NR 22.9000 117.100 main 54 54 __________O___ -1 22.9000 117.100 2 2 237
1935229N09145 1935 44 WP MM NOT_NAMED 1935-08-25 00:00:00 NR 22.9378 117.141 main 54 52 __________P___ -1 22.9378 117.141 2 2 58
1935229N09145 1935 44 WP MM NOT_NAMED 1935-08-25 03:00:00 NR 23.0299 117.325 main 59 54 __________P___ -1 23.0299 117.325 2 4 66
1935229N09145 1935 44 WP MM NOT_NAMED 1935-08-25 06:00:00 NR 23.1069 117.547 main 60 60 __________P___ -1 23.1069 117.547 2 4 78
1935229N09145 1935 44 WP MM NOT_NAMED 1935-08-25 09:00:00 NR 23.1000 117.700 main 67 67 __________O___ -1 23.1000 117.700 2 2 166
1935229N09145 1935 44 WP MM NOT_NAMED 1935-08-25 12:00:00 NR 22.8861 117.603 main 84 84 __________P___ -1 22.8861 117.603 2 6 206
1935229N09145 1935 44 WP MM NOT_NAMED 1935-08-25 15:00:00 NR 22.5878 117.429 main 98 98 __________P___ -1 22.5878 117.429 2 7 209
1935229N09145 1935 44 WP MM NOT_NAMED 1935-08-25 18:00:00 NR 22.2705 117.240 main 98 98 __________P___ -1 22.2705 117.240 2 7 207
1935229N09145 1935 44 WP MM NOT_NAMED 1935-08-25 21:00:00 NR 22.0000 117.100 main 117 117 __________O___ -1 22.0000 117.100 2 4 207
1935229N09145 1935 44 WP MM NOT_NAMED 1935-08-26 00:00:00 NR 21.8995 117.035 main 123 123 __________P___ -1 21.8995 117.035 2 2 202
1935229N09145 1935 44 WP MM NOT_NAMED 1935-08-26 03:00:00 NR 21.8492 117.034 main 133 133 __________P___ -1 21.8492 117.034 2 1 143
1935229N09145 1935 44 WP MM NOT_NAMED 1935-08-26 06:00:00 NR 21.7993 117.116 main 137 137 __________P___ -1 21.7993 117.116 2 3 121
1935229N09145 1935 44 WP MM NOT_NAMED 1935-08-26 09:00:00 NR 21.7000 117.300 main 157 157 __________O___ -1 21.7000 117.300 2 6 126
1935229N09145 1935 44 WP MM NOT_NAMED 1935-08-26 12:00:00 NR 21.4590 117.629 main 193 193 __________P___ -1 21.4590 117.629 2 9 127
1935229N09145 1935 44 WP MM NOT_NAMED 1935-08-26 15:00:00 NR 21.1663 118.050 main 244 244 __________P___ -1 21.1663 118.050 2 10 126
1935229N09145 1935 44 WP MM NOT_NAMED 1935-08-26 18:00:00 NR 20.8653 118.495 main 253 236 __________P___ -1 20.8653 118.495 2 10 125
1935229N09145 1935 44 WP MM NOT_NAMED 1935-08-26 21:00:00 NR 20.6000 118.900 main 236 228 __________O___ -1 20.6000 118.900 2 9 129
1935229N09145 1935 44 WP MM NOT_NAMED 1935-08-27 00:00:00 NR 20.3300 119.200 main 237 222 __________P___ -1 20.3300 119.200 2 7 133
1935229N09145 1935 44 WP MM NOT_NAMED 1935-08-27 03:00:00 NR 20.1172 119.447 main 222 200 __________P___ -1 20.1172 119.447 2 5 126
1935229N09145 1935 44 WP MM NOT_NAMED 1935-08-27 06:00:00 NR 20.0208 119.647 main 200 188 __________P___ -1 20.0208 119.647 2 3 93
1935229N09145 1935 44 WP MM NOT_NAMED 1935-08-27 09:00:00 NR 20.1000 119.800 main 197 187 __________O___ -1 20.1000 119.800 2 5 29
1935229N09145 1935 44 WP MM NOT_NAMED 1935-08-27 12:00:00 NR 20.4241 119.886 main 187 139 __________P___ -1 20.4241 119.886 2 8 9
1935229N09145 1935 44 WP MM NOT_NAMED 1935-08-27 15:00:00 NR 20.9196 119.936 main 139 85 __________P___ -1 20.9196 119.936 2 11 5
1935229N09145 1935 44 WP MM NOT_NAMED 1935-08-27 18:00:00 NR 21.5053 119.993 main 85 49 __________P___ -1 21.5053 119.993 2 12 7
1935229N09145 1935 44 WP MM NOT_NAMED 1935-08-27 21:00:00 NR 22.1000 120.100 main 49 0 __________O___ -1 22.1000 120.100 2 12 15
1935229N09145 1935 44 WP MM NOT_NAMED 1935-08-28 00:00:00 NR 22.6516 120.332 main 0 0 __________P___ -1 22.6516 120.332 2 12 24
1935229N09145 1935 44 WP MM NOT_NAMED 1935-08-28 03:00:00 NR 23.1855 120.618 main 0 0 __________P___ -1 23.1855 120.618 2 11 28
1935229N09145 1935 44 WP MM NOT_NAMED 1935-08-28 06:00:00 NR 23.6516 120.920 main 0 0 __________P___ -1 23.6516 120.920 2 10 33
1935229N09145 1935 44 WP MM NOT_NAMED 1935-08-28 09:00:00 NR 24.0000 121.200 main 0 0 __________O___ -1 24.0000 121.200 2 6 42
1935229N09145 1935 44 WP MM NOT_NAMED 1935-08-28 12:00:00 NR 24.1311 121.385 main 0 0 __________P___ -1 24.1311 121.385 2 4 64
1935229N09145 1935 44 WP MM NOT_NAMED 1935-08-28 15:00:00 NR 24.1518 121.545 main 0 0 __________P___ -1 24.1518 121.545 2 3 87
1935229N09145 1935 44 WP MM NOT_NAMED 1935-08-28 18:00:00 NR 24.1467 121.707 main 10 10 __________P___ -1 24.1467 121.707 2 3 82
1935229N09145 1935 44 WP MM NOT_NAMED 1935-08-28 21:00:00 NR 24.2000 121.900 main 23 23 __________O___ -1 24.2000 121.900 2 5 53
1935229N09145 1935 44 WP MM NOT_NAMED 1935-08-29 00:00:00 NR 24.4484 122.151 main 32 30 __________P___ -1 24.4484 122.151 2 7 41
1935229N09145 1935 44 WP MM NOT_NAMED 1935-08-29 03:00:00 NR 24.7624 122.439 main 46 46 __________P___ -1 24.7624 122.439 2 9 40
1935229N09145 1935 44 WP MM NOT_NAMED 1935-08-29 06:00:00 NR 25.0952 122.757 main 81 81 __________P___ -1 25.0952 122.757 2 9 43
1935229N09145 1935 44 WP MM NOT_NAMED 1935-08-29 09:00:00 NR 25.4000 123.100 main 119 119 __________O___ -1 25.4000 123.100 2 8 54
1935229N09145 1935 44 WP MM NOT_NAMED 1935-08-29 12:00:00 NR 25.5912 123.503 main 164 164 __________P___ -1 25.5912 123.503 2 8 65
1935229N09145 1935 44 WP MM NOT_NAMED 1935-08-29 15:00:00 NR 25.7509 123.918 main 210 210 __________P___ -1 25.7509 123.918 2 8 66
1935229N09145 1935 44 WP MM NOT_NAMED 1935-08-29 18:00:00 NR 25.9100 124.299 main 251 251 __________P___ -1 25.9100 124.299 2 7 60
1935229N09145 1935 44 WP MM NOT_NAMED 1935-08-29 21:00:00 NR 26.1000 124.600 main 288 288 __________O___ -1 26.1000 124.600 2 6 45
1935229N09145 1935 44 WP MM NOT_NAMED 1935-08-30 00:00:00 NR 26.3594 124.802 main 320 320 __________P___ -1 26.3594 124.802 2 6 27
1935229N09145 1935 44 WP MM NOT_NAMED 1935-08-30 03:00:00 NR 26.6542 124.915 main 346 346 __________P___ -1 26.6542 124.915 2 6 12
1935229N09145 1935 44 WP MM NOT_NAMED 1935-08-30 06:00:00 NR 26.9720 124.945 main 355 342 __________P___ -1 26.9720 124.945 2 6 0
1935229N09145 1935 44 WP MM NOT_NAMED 1935-08-30 09:00:00 NR 27.3000 124.900 main 342 311 __________O___ -1 27.3000 124.900 2 8 344
1935229N09145 1935 44 WP MM NOT_NAMED 1935-08-30 12:00:00 NR 27.6993 124.709 main 311 272 __________P___ -1 27.6993 124.709 2 9 334
1935229N09145 1935 44 WP MM NOT_NAMED 1935-08-30 15:00:00 NR 28.0926 124.462 main 272 240 __________P___ -1 28.0926 124.462 2 8 331
1935229N09145 1935 44 WP MM NOT_NAMED 1935-08-30 18:00:00 NR 28.4145 124.259 main 240 224 __________P___ -1 28.4145 124.259 2 6 336
1935229N09145 1935 44 WP MM NOT_NAMED 1935-08-30 21:00:00 NR 28.6000 124.200 main 224 224 __________O___ -1 28.6000 124.200 2 2 62
1935229N09145 1935 44 WP MM NOT_NAMED 1935-08-31 00:00:00 NR 28.4921 124.423 main 246 246 __________P___ -1 28.4921 124.423 2 6 123
1935229N09145 1935 44 WP MM NOT_NAMED 1935-08-31 03:00:00 NR 28.2585 124.797 main 290 290 __________P___ -1 28.2585 124.797 2 9 123
1935229N09145 1935 44 WP MM NOT_NAMED 1935-08-31 06:00:00 NR 28.0204 125.246 main 339 339 __________P___ -1 28.0204 125.246 2 9 114
1935229N09145 1935 44 WP MM NOT_NAMED 1935-08-31 09:00:00 NR 27.9000 125.700 main 389 389 __________O___ -1 27.9000 125.700 2 7 86
1935229N09145 1935 44 WP MM NOT_NAMED 1935-08-31 12:00:00 NR 28.0748 126.031 main 408 408 __________P___ -1 28.0748 126.031 2 8 51
1935229N09145 1935 44 WP MM NOT_NAMED 1935-08-31 15:00:00 NR 28.3788 126.361 main 437 435 __________P___ -1 28.3788 126.361 2 9 42
1935229N09145 1935 44 WP MM NOT_NAMED 1935-08-31 18:00:00 NR 28.7434 126.710 main 437 378 __________P___ -1 28.7434 126.710 2 10 42
1935229N09145 1935 44 WP MM NOT_NAMED 1935-08-31 21:00:00 NR 29.1000 127.100 main 378 334 __________O___ -1 29.1000 127.100 2 9 54
1935229N09145 1935 44 WP MM NOT_NAMED 1935-09-01 00:00:00 NR 29.2603 127.522 main 334 291 __________P___ -1 29.2603 127.522 2 8 68
1935229N09145 1935 44 WP MM NOT_NAMED 1935-09-01 03:00:00 NR 29.4134 127.989 main 291 241 __________P___ -1 29.4134 127.989 2 9 67
1935229N09145 1935 44 WP MM NOT_NAMED 1935-09-01 06:00:00 NR 29.6348 128.511 main 241 170 __________P___ -1 29.6348 128.511 2 11 59
1935229N09145 1935 44 WP MM NOT_NAMED 1935-09-01 09:00:00 NR 30.0000 129.100 main 170 77 __________O___ -1 30.0000 129.100 2 15 49
1935229N09145 1935 44 WP MM NOT_NAMED 1935-09-01 12:00:00 NR 30.6382 129.831 main 77 0 __________P___ -1 30.6382 129.831 2 19 43
1935229N09145 1935 44 WP MM NOT_NAMED 1935-09-01 15:00:00 NR 31.4140 130.625 main 9 0 __________P___ -1 31.4140 130.625 2 21 40
1935229N09145 1935 44 WP MM NOT_NAMED 1935-09-01 18:00:00 NR 32.2323 131.409 main 0 0 __________P___ -1 32.2323 131.409 2 20 38
1935229N09145 1935 44 WP MM NOT_NAMED 1935-09-01 21:00:00 NR 33.0000 132.100 main 11 0 __________O___ -1 33.0000 132.100 2 16 36
1935229N09145 1935 44 WP MM NOT_NAMED 1935-09-02 00:00:00 NR 33.5494 132.552 main 0 0 __________P___ -1 33.5494 132.552 2 12 33
1935229N09145 1935 44 WP MM NOT_NAMED 1935-09-02 03:00:00 NR 34.0450 132.902 main 0 0 __________P___ -1 34.0450 132.902 2 11 29
1935229N09145 1935 44 WP MM NOT_NAMED 1935-09-02 06:00:00 NR 34.5434 133.224 main 0 0 __________P___ -1 34.5434 133.224 2 12 29
1935229N09145 1935 44 WP MM NOT_NAMED 1935-09-02 09:00:00 NR 35.1000 133.600 main 0 0 __________O___ -1 35.1000 133.600 2 14 30
1935229N09145 1935 44 WP MM NOT_NAMED 1935-09-02 12:00:00 NR 35.7554 134.093 main 34 28 __________P___ -1 35.7554 134.093 2 17 32
1935229N09145 1935 44 WP MM NOT_NAMED 1935-09-02 15:00:00 NR 36.4937 134.693 main 96 96 __________P___ -1 36.4937 134.693 2 18 34
1935229N09145 1935 44 WP MM NOT_NAMED 1935-09-02 18:00:00 NR 37.2851 135.372 main 115 90 __________P___ -1 37.2851 135.372 2 20 35
1935229N09145 1935 44 WP MM NOT_NAMED 1935-09-02 21:00:00 NR 38.1000 136.100 main 99 __________O___ -1 38.1000 136.100 2 20 35

Digital Typhoon Data and Search

About IBTrACS Database

This database is a web-friendly format of International Best Track Archive for Climate Stewardship (IBTrACS), a global best track data archive curated by NOAA dating back to 1842.

Updated: 2021-12-08